Time;durP1;ratioP1;P1;durP2;ratioP2;P2;SDS_P1;SDS_P2;PMS_P1;PMS_P2;Temp;Humidity;BMP_temperature;BMP_pressure;BME280_temperature;BME280_humidity;BME280_pressure;Samples;Min_cycle;Max_cycle;Signal;HPM_P1;HPM_P2
2022/01/01 00:01:56;;;;;;;66.10;32.93;;;;;;;-1.43;100.00;100570.45;1684643;84;21054;-86
2022/01/01 00:04:24;;;;;;;57.15;31.17;;;;;;;-1.44;100.00;100565.39;1684465;84;21097;-87
2022/01/01 00:06:51;;;;;;;69.32;32.90;;;;;;;-1.45;100.00;100570.95;1694880;84;21102;-87
2022/01/01 00:09:20;;;;;;;57.75;30.48;;;;;;;-1.43;100.00;100564.52;1678639;85;21481;-87
2022/01/01 00:11:48;;;;;;;61.88;30.20;;;;;;;-1.43;100.00;100558.14;1693167;84;21216;-86
2022/01/01 00:14:16;;;;;;;56.63;27.35;;;;;;;-1.43;100.00;100557.69;1655407;85;21031;-86
2022/01/01 00:16:45;;;;;;;55.78;28.52;;;;;;;-1.43;100.00;100554.30;1693486;84;21134;-86
2022/01/01 00:19:13;;;;;;;54.10;27.27;;;;;;;-1.41;100.00;100551.70;1693493;83;21125;-85
2022/01/01 00:21:43;;;;;;;51.98;26.73;;;;;;;-1.41;100.00;100550.00;1713580;81;21038;-86
2022/01/01 00:24:11;;;;;;;57.65;27.60;;;;;;;-1.39;100.00;100548.22;1705484;84;21141;-85
2022/01/01 00:26:39;;;;;;;56.10;28.10;;;;;;;-1.36;100.00;100552.44;1717447;83;21000;-86
2022/01/01 00:29:08;;;;;;;53.50;25.88;;;;;;;-1.35;100.00;100557.92;1697010;83;21024;-85
2022/01/01 00:31:35;;;;;;;58.52;28.12;;;;;;;-1.34;100.00;100545.13;1717454;83;21529;-85
2022/01/01 00:34:03;;;;;;;55.12;27.13;;;;;;;-1.32;100.00;100542.06;1717829;83;21007;-86
2022/01/01 00:36:31;;;;;;;54.70;27.55;;;;;;;-1.32;100.00;100530.57;1717523;83;21108;-85
2022/01/01 00:38:59;;;;;;;57.40;29.67;;;;;;;-1.31;100.00;100535.26;1696854;83;21114;-86
2022/01/01 00:41:26;;;;;;;58.38;26.70;;;;;;;-1.32;100.00;100521.63;1697127;83;21047;-86
2022/01/01 00:43:54;;;;;;;55.30;27.90;;;;;;;-1.31;100.00;100515.64;1717608;82;21568;-86
2022/01/01 00:46:21;;;;;;;57.38;28.27;;;;;;;-1.28;100.00;100518.13;1718020;82;21623;-86
2022/01/01 00:48:53;;;;;;;51.40;27.30;;;;;;;-1.28;100.00;100514.30;1717481;83;21144;-86
2022/01/01 00:51:18;;;;;;;52.40;27.40;;;;;;;-1.27;100.00;100506.17;1693660;84;21055;-87
2022/01/01 00:53:46;;;;;;;61.13;30.35;;;;;;;-1.28;100.00;100505.34;1693244;84;21062;-87
2022/01/01 00:56:13;;;;;;;59.50;27.82;;;;;;;-1.28;100.00;100498.11;1693460;84;21063;-86
2022/01/01 00:58:41;;;;;;;65.28;30.77;;;;;;;-1.28;100.00;100492.58;1693067;84;21092;-87
2022/01/01 01:01:09;;;;;;;53.68;27.80;;;;;;;-1.28;100.00;100487.89;1693482;84;21132;-87
2022/01/01 01:03:37;;;;;;;60.40;30.27;;;;;;;-1.28;100.00;100486.19;1693069;84;21055;-86
2022/01/01 01:06:04;;;;;;;59.30;29.10;;;;;;;-1.27;100.00;100479.34;1693465;84;21509;-87
2022/01/01 01:08:32;;;;;;;56.53;28.80;;;;;;;-1.27;100.00;100469.12;1693343;84;21086;-87
2022/01/01 01:11:03;;;;;;;62.45;29.35;;;;;;;-1.28;100.00;100464.89;1693197;84;21062;-85
2022/01/01 01:13:33;;;;;;;55.70;27.52;;;;;;;-1.28;100.00;100464.47;1693773;84;21631;-86
2022/01/01 01:16:01;;;;;;;56.98;25.77;;;;;;;-1.28;100.00;100459.36;1643366;84;21031;-86
2022/01/01 01:18:29;;;;;;;66.00;31.65;;;;;;;-1.25;100.00;100451.22;1693176;84;21102;-86
2022/01/01 01:20:58;;;;;;;61.10;28.62;;;;;;;-1.25;100.00;100446.11;1709738;83;21588;-86
2022/01/01 01:23:27;;;;;;;62.45;30.20;;;;;;;-1.25;100.00;100447.38;1693156;83;21222;-86
2022/01/01 01:25:56;;;;;;;66.10;29.80;;;;;;;-1.25;100.00;100438.44;1691384;84;21904;-86
2022/01/01 01:28:25;;;;;;;65.08;30.92;;;;;;;-1.24;100.00;100431.17;1676753;85;21595;-85
2022/01/01 01:30:53;;;;;;;70.00;30.77;;;;;;;-1.24;100.00;100426.89;1678409;85;21512;-86
2022/01/01 01:33:21;;;;;;;66.55;28.98;;;;;;;-1.21;100.00;100428.52;1688847;84;21047;-86
2022/01/01 01:35:49;;;;;;;66.50;29.32;;;;;;;-1.20;100.00;100422.52;1689005;84;21012;-87
2022/01/01 01:38:16;;;;;;;73.78;31.02;;;;;;;-1.20;100.00;100413.58;1688792;84;21227;-86
2022/01/01 01:40:44;;;;;;;73.62;30.37;;;;;;;-1.18;100.00;100410.55;1689001;84;21069;-87
2022/01/01 01:43:12;;;;;;;65.80;27.52;;;;;;;-1.16;100.00;100406.23;1653101;85;21057;-86
2022/01/01 01:45:42;;;;;;;71.92;31.17;;;;;;;-1.14;100.00;100400.61;1689589;84;22052;-87
2022/01/01 01:48:09;;;;;;;63.95;27.25;;;;;;;-1.14;100.00;100401.89;1688898;84;21063;-86
2022/01/01 01:50:37;;;;;;;66.72;27.35;;;;;;;-1.13;100.00;100398.03;1676710;85;21821;-87
2022/01/01 01:53:06;;;;;;;67.95;28.52;;;;;;;-1.11;100.00;100400.54;1677192;84;21480;-86
2022/01/01 01:55:35;;;;;;;67.27;27.52;;;;;;;-1.09;100.00;100388.98;1692210;84;21020;-85
2022/01/01 01:58:03;;;;;;;63.38;27.27;;;;;;;-1.09;100.00;100384.72;1668847;85;21039;-85
2022/01/01 02:03:16;;;;;;;75.20;30.27;;;;;;;-1.05;100.00;100373.50;1694621;83;21155;-86
2022/01/01 02:05:47;;;;;;;61.63;26.07;;;;;;;-1.04;100.00;100370.07;1682297;84;21064;-86
2022/01/01 02:08:17;;;;;;;65.20;27.17;;;;;;;-1.02;100.00;100367.45;1717852;82;21039;-85
2022/01/01 02:10:47;;;;;;;59.23;25.20;;;;;;;-0.98;100.00;100363.94;1705105;83;21092;-86
2022/01/01 02:13:22;;;;;;;65.00;28.95;;;;;;;-0.96;100.00;100360.45;1678254;83;21543;-87
2022/01/01 02:16:11;;;;;;;63.38;27.25;;;;;;;-0.96;100.00;100355.33;1705324;82;21250;-86
2022/01/01 02:18:20;;;;;;;64.00;26.77;;;;;;;-0.96;100.00;100351.92;1672123;85;21559;-85
2022/01/01 02:20:49;;;;;;;59.88;28.02;;;;;;;-0.94;100.00;100348.06;1696307;83;21580;-85
2022/01/01 02:23:22;;;;;;;67.15;29.00;;;;;;;-0.94;100.00;100341.67;1714089;83;21054;-85
2022/01/01 02:25:51;;;;;;;64.42;28.00;;;;;;;-0.93;100.00;100336.95;1722119;82;21023;-85
2022/01/01 02:28:19;;;;;;;58.42;26.80;;;;;;;-0.92;100.00;100332.24;1701433;83;21923;-86
2022/01/01 02:30:50;;;;;;;61.92;29.12;;;;;;;-0.91;100.00;100330.05;1697069;82;21049;-86
2022/01/01 02:33:18;;;;;;;53.13;25.17;;;;;;;-0.90;100.00;100320.22;1691705;84;21017;-86
2022/01/01 02:35:45;;;;;;;55.03;26.77;;;;;;;-0.89;100.00;100316.36;1691657;84;21554;-86
2022/01/01 02:38:15;;;;;;;59.42;30.12;;;;;;;-0.85;100.00;100305.14;1691971;84;21030;-86
2022/01/01 02:40:43;;;;;;;52.55;28.38;;;;;;;-0.82;100.00;100308.03;1691317;84;21257;-86
2022/01/01 02:43:11;;;;;;;55.15;26.77;;;;;;;-0.82;100.00;100299.08;1691662;84;21124;-87
2022/01/01 02:45:38;;;;;;;55.67;28.83;;;;;;;-0.80;100.00;100293.48;1671707;84;21550;-87
2022/01/01 02:48:07;;;;;;;50.10;27.90;;;;;;;-0.80;100.00;100293.02;1691595;84;21100;-86
2022/01/01 02:50:34;;;;;;;46.28;26.57;;;;;;;-0.78;100.00;100285.75;1671539;84;21014;-87
2022/01/01 02:53:02;;;;;;;48.35;26.12;;;;;;;-0.76;100.00;100286.09;1691650;84;21219;-87
2022/01/01 02:55:30;;;;;;;50.35;27.62;;;;;;;-0.73;100.00;100278.32;1691415;84;21100;-87
2022/01/01 02:57:57;;;;;;;45.78;26.12;;;;;;;-0.70;100.00;100269.70;1691698;84;21029;-86
2022/01/01 03:00:25;;;;;;;45.90;25.25;;;;;;;-0.68;100.00;100272.59;1691690;84;21670;-87
2022/01/01 03:02:52;;;;;;;43.45;26.27;;;;;;;-0.66;100.00;100272.56;1671517;84;21120;-86
2022/01/01 03:05:19;;;;;;;42.05;24.55;;;;;;;-0.64;100.00;100263.95;1691827;84;21179;-86
2022/01/01 03:07:47;;;;;;;40.90;24.05;;;;;;;-0.61;100.00;100258.34;1671262;84;21049;-87
2022/01/01 03:10:15;;;;;;;41.58;23.47;;;;;;;-0.61;100.00;100259.17;1671506;84;21571;-87
2022/01/01 03:12:42;;;;;;;41.63;24.20;;;;;;;-0.58;100.00;100251.83;1691604;84;21112;-87
2022/01/01 03:15:11;;;;;;;39.20;24.30;;;;;;;-0.57;100.00;100247.11;1671591;84;21010;-87
2022/01/01 03:17:39;;;;;;;40.48;24.50;;;;;;;-0.56;100.00;100239.83;1671657;84;21149;-87
2022/01/01 03:20:08;;;;;;;38.92;22.48;;;;;;;-0.56;100.00;100239.83;1691370;84;21707;-87
2022/01/01 03:22:36;;;;;;;37.55;22.67;;;;;;;-0.55;100.00;100235.93;1691617;84;21140;-88
2022/01/01 03:25:04;;;;;;;40.67;23.92;;;;;;;-0.52;100.00;100230.72;1671222;84;21113;-87
2022/01/01 03:27:32;;;;;;;37.88;22.73;;;;;;;-0.51;100.00;100225.14;1703461;83;21060;-87
2022/01/01 03:29:59;;;;;;;33.28;20.88;;;;;;;-0.50;100.00;100221.70;1706897;83;21823;-86
2022/01/01 03:32:27;;;;;;;33.50;20.75;;;;;;;-0.48;100.00;100214.81;1678668;83;21086;-86
2022/01/01 03:34:56;;;;;;;33.45;20.32;;;;;;;-0.45;100.00;100209.60;1678631;83;21051;-86
2022/01/01 03:37:23;;;;;;;33.95;20.23;;;;;;;-0.43;100.00;100206.98;1678763;83;21087;-85
2022/01/01 03:39:51;;;;;;;34.33;20.88;;;;;;;-0.41;100.00;100201.38;1707552;82;21020;-85
2022/01/01 03:42:19;;;;;;;32.33;20.05;;;;;;;-0.39;100.00;100198.28;1708547;82;21172;-85
2022/01/01 03:44:46;;;;;;;31.68;19.27;;;;;;;-0.38;100.00;100193.14;1706910;83;21021;-86
2022/01/01 03:47:14;;;;;;;31.45;19.65;;;;;;;-0.36;100.00;100187.95;1706717;82;20981;-86
2022/01/01 03:49:42;;;;;;;31.93;19.07;;;;;;;-0.35;100.00;100182.77;1707332;82;21052;-87
2022/01/01 03:52:09;;;;;;;30.55;19.48;;;;;;;-0.35;100.00;100177.66;1708692;82;21021;-85
2022/01/01 03:54:38;;;;;;;31.57;19.42;;;;;;;-0.36;100.00;100170.86;1707378;82;21071;-85
2022/01/01 03:57:05;;;;;;;26.37;17.23;;;;;;;-0.38;100.00;100172.67;1706946;82;21048;-85
2022/01/01 03:59:33;;;;;;;29.35;17.23;;;;;;;-0.37;100.00;100169.66;1678531;83;20997;-84
2022/01/01 04:02:03;;;;;;;30.95;18.60;;;;;;;-0.39;100.00;100163.32;1706905;82;21021;-85
2022/01/01 04:04:31;;;;;;;29.48;18.30;;;;;;;-0.37;100.00;100165.39;1678698;83;21043;-85
2022/01/01 04:06:59;;;;;;;31.97;18.35;;;;;;;-0.37;100.00;100158.14;1707436;82;21189;-84
2022/01/01 04:09:27;;;;;;;30.68;18.17;;;;;;;-0.38;100.00;100159.88;1678694;83;21048;-85
2022/01/01 04:11:55;;;;;;;26.87;16.90;;;;;;;-0.36;100.00;100155.52;1679076;83;21052;-84
2022/01/01 04:14:22;;;;;;;29.52;17.90;;;;;;;-0.35;100.00;100154.63;1679647;83;21092;-84
2022/01/01 04:16:53;;;;;;;34.40;17.50;;;;;;;-0.34;100.00;100146.06;1706783;83;21703;-86
2022/01/01 04:19:27;;;;;;;29.18;18.45;;;;;;;-0.31;100.00;100148.95;1707219;82;21178;-83
2022/01/01 04:21:51;;;;;;;26.07;15.50;;;;;;;-0.30;100.00;100139.56;1677212;83;21056;-83
2022/01/01 04:24:19;;;;;;;27.50;16.73;;;;;;;-0.29;100.00;100136.94;1678670;83;21056;-83
2022/01/01 04:26:46;;;;;;;27.37;16.77;;;;;;;-0.29;100.00;100131.00;1679390;83;21052;-84
2022/01/01 04:29:14;;;;;;;27.30;16.67;;;;;;;-0.30;100.00;100130.15;1706739;83;21063;-83
2022/01/01 04:31:41;;;;;;;25.65;15.98;;;;;;;-0.31;100.00;100128.48;1707164;82;21819;-83
2022/01/01 04:34:09;;;;;;;27.75;17.10;;;;;;;-0.30;100.00;100122.94;1706806;83;21541;-83
2022/01/01 04:36:46;;;;;;;21.37;15.10;;;;;;;-0.30;100.00;100130.61;1706455;82;21076;-84
2022/01/01 04:39:05;;;;;;;25.92;15.13;;;;;;;-0.29;100.00;100127.16;1703118;83;21032;-84
2022/01/01 04:41:33;;;;;;;24.82;16.20;;;;;;;-0.26;100.00;100127.02;1707444;82;21017;-83
2022/01/01 04:44:02;;;;;;;24.57;15.03;;;;;;;-0.24;100.00;100123.97;1678439;83;21086;-83
2022/01/01 04:46:29;;;;;;;22.70;15.53;;;;;;;-0.23;100.00;100114.95;1678811;83;21124;-82
2022/01/01 04:48:57;;;;;;;26.35;16.42;;;;;;;-0.23;100.00;100109.83;1706549;83;21091;-82
2022/01/01 04:51:25;;;;;;;26.15;14.60;;;;;;;-0.22;100.00;100110.22;1707269;82;21103;-82
2022/01/01 04:53:59;;;;;;;24.85;15.08;;;;;;;-0.19;100.00;100113.95;1706939;83;21076;-83
2022/01/01 04:56:23;;;;;;;20.45;14.65;;;;;;;-0.17;100.00;100116.44;1703247;82;21217;-83
2022/01/01 04:58:54;;;;;;;20.97;14.93;;;;;;;-0.15;100.00;100115.95;1706673;84;21060;-82
2022/01/01 05:01:22;;;;;;;22.73;15.32;;;;;;;-0.13;100.00;100113.31;1707384;82;21100;-82
2022/01/01 05:03:49;;;;;;;20.12;13.72;;;;;;;-0.14;100.00;100109.94;1679389;83;21562;-82
2022/01/01 05:06:16;;;;;;;20.30;13.75;;;;;;;-0.12;100.00;100108.13;1678532;83;21040;-82
2022/01/01 05:08:44;;;;;;;18.55;13.38;;;;;;;-0.10;100.00;100110.66;1707095;82;21103;-82
2022/01/01 05:11:13;;;;;;;20.17;13.45;;;;;;;-0.08;100.00;100107.13;1679015;83;21005;-84
2022/01/01 05:13:40;;;;;;;20.72;13.95;;;;;;;-0.06;100.00;100103.23;1706693;82;21522;-83
2022/01/01 05:16:13;;;;;;;20.20;14.53;;;;;;;-0.03;100.00;100103.12;1678786;83;21068;-84
2022/01/01 05:18:37;;;;;;;20.40;13.38;;;;;;;-0.05;100.00;100098.06;1703316;83;21020;-84
2022/01/01 05:21:08;;;;;;;18.10;13.03;;;;;;;-0.07;100.00;100093.45;1695913;82;21153;-84
2022/01/01 05:23:36;;;;;;;21.05;14.47;;;;;;;-0.08;100.00;100087.94;1731936;81;21093;-84
2022/01/01 05:26:03;;;;;;;23.92;14.23;;;;;;;-0.09;100.00;100071.37;1734443;81;21579;-80
2022/01/01 05:28:31;;;;;;;25.02;14.13;;;;;;;-0.10;100.00;100058.18;1693639;83;21102;-80
2022/01/01 05:30:58;;;;;;;38.33;14.45;;;;;;;0.03;100.00;100049.11;1692666;82;21035;-82
2022/01/01 05:33:25;;;;;;;42.65;15.13;;;;;;;0.21;100.00;100038.55;1693163;84;21165;-82
2022/01/01 05:35:53;;;;;;;29.98;13.10;;;;;;;0.28;100.00;100043.80;1693171;84;21121;-83
2022/01/01 05:38:22;;;;;;;20.95;13.03;;;;;;;0.30;100.00;100047.14;1692954;84;21592;-82
2022/01/01 05:40:48;;;;;;;25.70;13.43;;;;;;;0.34;100.00;100044.47;1673090;84;21019;-83
2022/01/01 05:43:16;;;;;;;17.35;12.20;;;;;;;0.39;100.00;100048.51;1672954;84;21106;-84
2022/01/01 05:45:43;;;;;;;14.95;10.72;;;;;;;0.44;100.00;100043.19;1694111;83;21137;-82
2022/01/01 05:48:11;;;;;;;18.25;11.00;;;;;;;0.39;100.00;100042.53;1720900;81;21047;-84
2022/01/01 05:50:38;;;;;;;14.78;9.88;;;;;;;0.29;100.00;100042.91;1701017;83;21091;-84
2022/01/01 05:53:05;;;;;;;13.30;9.65;;;;;;;0.24;100.00;100035.06;1700899;83;21103;-83
2022/01/01 05:55:32;;;;;;;13.65;9.25;;;;;;;0.21;100.00;100030.05;1722109;82;21059;-82
2022/01/01 05:57:59;;;;;;;12.45;9.30;;;;;;;0.18;100.00;100032.30;1722232;82;21861;-82
2022/01/01 06:00:26;;;;;;;12.75;8.20;;;;;;;0.16;100.00;100032.80;1721897;83;21004;-83
2022/01/01 06:02:57;;;;;;;10.70;8.45;;;;;;;0.14;100.00;100037.14;1719845;83;21031;-83
2022/01/01 06:05:28;;;;;;;11.75;8.38;;;;;;;0.14;100.00;100043.55;1670796;84;21051;-82
2022/01/01 06:07:57;;;;;;;10.80;8.20;;;;;;;0.13;100.00;100046.56;1673626;84;21016;-82
2022/01/01 06:10:26;;;;;;;10.98;8.45;;;;;;;0.13;100.00;100052.97;1693448;83;21240;-82
2022/01/01 06:12:54;;;;;;;14.07;8.88;;;;;;;0.12;100.00;100047.45;1693077;84;21063;-82
2022/01/01 06:15:22;;;;;;;11.03;8.80;;;;;;;0.14;100.00;100028.18;1696433;83;21002;-82
2022/01/01 06:17:50;;;;;;;13.45;9.08;;;;;;;0.15;100.00;100032.41;1693318;83;21402;-81
2022/01/01 06:20:17;;;;;;;13.78;8.93;;;;;;;0.16;100.00;100027.68;1700263;83;21163;-81
2022/01/01 06:22:49;;;;;;;12.33;9.08;;;;;;;0.17;100.00;100035.75;1704497;82;21004;-81
2022/01/01 06:25:17;;;;;;;18.20;10.23;;;;;;;0.20;100.00;100027.92;1693452;84;21115;-81
2022/01/01 06:27:44;;;;;;;14.00;9.63;;;;;;;0.21;100.00;100030.87;1719272;82;21060;-81
2022/01/01 06:30:13;;;;;;;13.70;9.80;;;;;;;0.23;100.00;100035.48;1722173;83;21992;-81
2022/01/01 06:32:41;;;;;;;12.78;10.65;;;;;;;0.24;100.00;100028.20;1722736;82;21066;-80
2022/01/01 06:35:09;;;;;;;12.13;9.78;;;;;;;0.25;100.00;100034.13;1722506;82;21191;-80
2022/01/01 06:37:36;;;;;;;14.45;10.23;;;;;;;0.26;100.00;100035.80;1701803;83;21162;-81
2022/01/01 06:40:04;;;;;;;12.93;10.53;;;;;;;0.26;100.00;100034.09;1722806;82;21066;-80
2022/01/01 06:42:32;;;;;;;17.90;12.23;;;;;;;0.26;100.00;100028.97;1701987;83;20992;-81
2022/01/01 06:44:59;;;;;;;14.28;10.53;;;;;;;0.27;100.00;100028.52;1695160;82;21560;-81
2022/01/01 06:47:26;;;;;;;14.95;10.40;;;;;;;0.28;100.00;100025.05;1673189;84;21327;-80
2022/01/01 06:49:55;;;;;;;12.47;9.90;;;;;;;0.29;100.00;100022.42;1693354;83;21047;-80
2022/01/01 06:52:22;;;;;;;10.50;9.10;;;;;;;0.31;100.00;100023.20;1693217;84;21051;-80
2022/01/01 06:54:52;;;;;;;13.18;9.13;;;;;;;0.33;100.00;100009.50;1693217;83;22275;-80
2022/01/01 06:57:19;;;;;;;13.08;9.63;;;;;;;0.36;100.00;100005.54;1707321;84;21062;-80
2022/01/01 06:59:46;;;;;;;10.10;8.15;;;;;;;0.36;100.00;100001.23;1722055;83;21170;-80
2022/01/01 07:02:14;;;;;;;12.10;9.13;;;;;;;0.38;100.00;100002.44;1705732;83;21071;-79
2022/01/01 07:04:41;;;;;;;10.82;8.23;;;;;;;0.39;100.00;99995.14;1722376;82;20976;-79
2022/01/01 07:07:10;;;;;;;12.60;9.98;;;;;;;0.40;100.00;99994.25;1722739;82;21106;-79
2022/01/01 07:09:38;;;;;;;12.85;9.05;;;;;;;0.39;100.00;99989.59;1700886;83;21508;-79
2022/01/01 07:12:07;;;;;;;12.63;9.08;;;;;;;0.40;100.00;99987.38;1722404;83;21112;-78
2022/01/01 07:14:34;;;;;;;13.90;9.65;;;;;;;0.41;100.00;99981.83;1722283;82;21099;-78
2022/01/01 07:17:02;;;;;;;13.30;9.85;;;;;;;0.40;100.00;99983.55;1722108;83;21514;-78
2022/01/01 07:19:29;;;;;;;13.05;9.48;;;;;;;0.43;100.00;99977.48;1722018;82;21098;-78
2022/01/01 07:21:59;;;;;;;13.00;9.78;;;;;;;0.45;100.00;99971.82;1722404;83;21031;-78
2022/01/01 07:24:26;;;;;;;14.78;10.82;;;;;;;0.45;100.00;99973.09;1709483;83;21157;-77
2022/01/01 07:26:54;;;;;;;15.35;10.18;;;;;;;0.46;100.00;99976.05;1708323;82;21075;-78
2022/01/01 07:29:21;;;;;;;13.72;10.78;;;;;;;0.49;100.00;99972.08;1684331;84;21030;-77
2022/01/01 07:31:48;;;;;;;17.17;12.28;;;;;;;0.51;100.00;99975.85;1702907;83;21178;-78
2022/01/01 07:34:15;;;;;;;15.72;12.10;;;;;;;0.54;100.00;99975.73;1702969;84;22083;-77
2022/01/01 07:36:48;;;;;;;16.85;12.63;;;;;;;0.55;100.00;99976.94;1745519;80;21140;-78
2022/01/01 07:39:15;;;;;;;16.17;12.18;;;;;;;0.57;100.00;99970.02;1725872;82;21054;-76
2022/01/01 07:41:45;;;;;;;14.00;11.00;;;;;;;0.58;100.00;99971.69;1736502;81;20999;-76
2022/01/01 07:44:13;;;;;;;17.75;13.28;;;;;;;0.60;100.00;99971.61;1690211;83;21042;-76
2022/01/01 07:46:42;;;;;;;15.45;11.70;;;;;;;0.62;100.00;99973.20;1706465;83;21097;-76
2022/01/01 07:49:09;;;;;;;16.30;12.43;;;;;;;0.66;100.00;99978.20;1709503;82;21532;-76
2022/01/01 07:51:36;;;;;;;16.15;12.23;;;;;;;0.70;100.00;99972.02;1709429;83;21101;-76
2022/01/01 07:54:04;;;;;;;15.35;11.90;;;;;;;0.71;100.00;99972.41;1709527;82;21160;-76
2022/01/01 07:56:32;;;;;;;15.50;12.13;;;;;;;0.71;100.00;99971.13;1709737;82;21539;-76
2022/01/01 07:58:59;;;;;;;14.13;11.57;;;;;;;0.72;100.00;99966.39;1715878;82;21093;-76
2022/01/01 08:01:26;;;;;;;14.25;11.43;;;;;;;0.76;100.00;99964.09;1729967;82;21087;-77
2022/01/01 08:03:55;;;;;;;16.93;11.97;;;;;;;0.76;100.00;99964.09;1738176;81;21042;-76
2022/01/01 08:06:22;;;;;;;13.83;11.18;;;;;;;0.79;100.00;99966.50;1738555;80;21113;-77
2022/01/01 08:08:49;;;;;;;20.40;15.88;;;;;;;0.82;100.00;99969.37;1731687;82;21109;-76
2022/01/01 08:11:16;;;;;;;18.70;14.80;;;;;;;0.84;100.00;99964.55;1736202;82;21050;-76
2022/01/01 08:13:43;;;;;;;18.27;14.50;;;;;;;0.88;100.00;99960.14;1718654;82;21042;-77
2022/01/01 08:16:10;;;;;;;16.93;13.05;;;;;;;0.93;100.00;99951.31;1725394;81;21112;-76
2022/01/01 08:18:37;;;;;;;17.23;13.18;;;;;;;0.99;100.00;99955.80;1738925;82;21073;-76
2022/01/01 08:21:04;;;;;;;16.55;12.53;;;;;;;1.03;100.00;99957.31;1731177;80;21022;-77
2022/01/01 08:23:31;;;;;;;16.02;12.28;;;;;;;1.08;100.00;99963.08;1717697;80;21012;-76
2022/01/01 08:26:00;;;;;;;16.80;12.93;;;;;;;1.13;100.00;99955.99;1737157;80;21123;-76
2022/01/01 08:28:27;;;;;;;17.57;12.70;;;;;;;1.15;100.00;99950.34;1728164;82;21094;-76
2022/01/01 08:30:55;;;;;;;16.37;11.90;;;;;;;1.20;100.00;99940.70;1705693;82;21043;-76
2022/01/01 08:33:22;;;;;;;20.32;13.00;;;;;;;1.25;100.00;99939.20;1696103;83;21055;-76
2022/01/01 08:35:49;;;;;;;18.50;13.22;;;;;;;1.30;100.00;99930.00;1695236;81;21063;-76
2022/01/01 08:38:17;;;;;;;17.90;12.15;;;;;;;1.39;100.00;99925.26;1704902;83;21994;-75
2022/01/01 08:40:44;;;;;;;20.40;13.95;;;;;;;1.48;100.00;99924.00;1690976;84;21013;-76
2022/01/01 08:43:12;;;;;;;16.85;12.35;;;;;;;1.54;100.00;99919.84;1671040;84;21108;-76
2022/01/01 08:45:41;;;;;;;16.45;12.85;;;;;;;1.57;100.00;99915.83;1691242;84;21978;-76
2022/01/01 08:48:11;;;;;;;20.23;13.78;;;;;;;1.63;100.00;99912.61;1712486;82;21027;-76
2022/01/01 08:50:38;;;;;;;19.67;15.65;;;;;;;1.67;100.00;99925.66;1700607;83;21876;-76
2022/01/01 08:53:12;;;;;;;20.57;14.75;;;;;;;1.68;100.00;99911.92;1719477;83;21079;-76
2022/01/01 08:55:39;;;;;;;19.82;15.10;;;;;;;1.68;100.00;99910.63;1685504;84;21048;-76
2022/01/01 08:58:08;;;;;;;20.95;14.73;;;;;;;1.66;100.00;99922.70;1717004;83;21121;-76
2022/01/01 09:00:36;;;;;;;19.48;13.85;;;;;;;1.66;100.00;99912.44;1710748;83;21083;-76
2022/01/01 09:03:05;;;;;;;17.62;13.60;;;;;;;1.64;100.00;99912.98;1694535;83;21048;-76
2022/01/01 09:05:33;;;;;;;19.82;15.50;;;;;;;1.62;100.00;99906.62;1688634;83;21063;-76
2022/01/01 09:08:03;;;;;;;22.17;14.55;;;;;;;1.65;100.00;99900.50;1709895;82;20984;-76
2022/01/01 09:10:32;;;;;;;22.55;15.88;;;;;;;1.67;100.00;99902.55;1715691;83;21112;-76
2022/01/01 09:13:01;;;;;;;22.75;16.57;;;;;;;1.70;100.00;99898.09;1693745;83;21494;-76
2022/01/01 09:15:28;;;;;;;23.18;16.45;;;;;;;1.72;100.00;99897.58;1696281;83;21549;-76
2022/01/01 09:17:57;;;;;;;22.80;16.23;;;;;;;1.73;100.00;99897.11;1698048;81;21024;-76
2022/01/01 09:20:28;;;;;;;22.65;15.65;;;;;;;1.75;100.00;99896.59;1686985;83;21638;-76
2022/01/01 09:22:57;;;;;;;23.77;17.23;;;;;;;1.74;100.00;99902.63;1668715;85;21114;-76
2022/01/01 09:25:25;;;;;;;24.47;17.62;;;;;;;1.70;100.00;99898.56;1633186;86;21533;-76
2022/01/01 09:27:52;;;;;;;25.90;17.98;;;;;;;1.69;100.00;99898.18;1661903;84;21160;-76
2022/01/01 09:30:20;;;;;;;32.33;20.08;;;;;;;1.66;100.00;99888.05;1758365;80;21480;-76
2022/01/01 09:32:49;;;;;;;28.65;19.90;;;;;;;1.62;100.00;99892.98;1727362;80;21527;-76
2022/01/01 09:35:18;;;;;;;24.43;17.85;;;;;;;1.60;100.00;99902.48;1666841;84;21074;-76
2022/01/01 09:37:46;;;;;;;28.98;20.30;;;;;;;1.57;100.00;99897.87;1711718;83;21009;-76
2022/01/01 09:40:14;;;;;;;32.67;22.70;;;;;;;1.55;100.00;99900.98;1719380;82;21214;-76
2022/01/01 09:42:44;;;;;;;47.70;29.32;;;;;;;1.53;100.00;99904.06;1695693;83;21080;-76
2022/01/01 09:45:12;;;;;;;42.95;24.82;;;;;;;1.51;100.00;99883.25;1676015;84;21008;-76
2022/01/01 09:47:42;;;;;;;41.95;25.90;;;;;;;1.48;100.00;99888.08;1696264;82;21049;-76
2022/01/01 09:50:10;;;;;;;47.85;28.92;;;;;;;1.46;100.00;99899.30;1693096;83;21145;-76
2022/01/01 09:52:39;;;;;;;47.53;28.92;;;;;;;1.44;100.00;99896.00;1713607;83;22866;-76
2022/01/01 09:55:09;;;;;;;44.83;28.42;;;;;;;1.40;100.00;99892.29;1664893;84;21062;-76
2022/01/01 09:57:39;;;;;;;50.75;31.30;;;;;;;1.39;100.00;99893.66;1725818;82;21075;-76
2022/01/01 10:00:09;;;;;;;53.15;30.88;;;;;;;1.40;100.00;99883.77;1717749;81;21042;-76
2022/01/01 10:02:38;;;;;;;54.10;32.40;;;;;;;1.43;100.00;99884.89;1745401;81;21066;-76
2022/01/01 10:05:09;;;;;;;57.10;33.85;;;;;;;1.47;100.00;99886.41;1694550;82;21129;-77
2022/01/01 10:07:37;;;;;;;54.48;31.82;;;;;;;1.49;100.00;99880.73;1738440;81;21212;-76
2022/01/01 10:10:22;;;;;;;49.18;30.25;;;;;;;1.52;100.00;99873.36;1692766;81;21085;-76
2022/01/01 10:12:51;;;;;;;51.73;30.20;;;;;;;1.53;100.00;99875.84;1696162;83;21653;-76
2022/01/01 10:15:20;;;;;;;44.55;27.87;;;;;;;1.55;100.00;99876.61;1697526;83;21115;-76
2022/01/01 10:17:48;;;;;;;52.38;30.68;;;;;;;1.56;100.00;99879.52;1704831;83;21132;-76
2022/01/01 10:20:16;;;;;;;47.10;29.27;;;;;;;1.59;100.00;99873.44;1674590;83;21101;-76
2022/01/01 10:22:48;;;;;;;49.03;28.92;;;;;;;1.64;100.00;99875.31;1702527;83;21081;-76
2022/01/01 10:28:05;;;;;;;96.80;62.98;;;;;;;1.67;100.00;99871.31;1694305;83;21658;-78
2022/01/01 10:30:39;;;;;;;74.58;40.38;;;;;;;1.69;100.00;99867.38;1739686;82;21153;-79
2022/01/01 10:33:18;;;;;;;707.00;243.90;;;;;;;2.04;100.00;99857.88;1730285;81;21087;-76
2022/01/01 10:35:50;;;;;;;428.80;139.60;;;;;;;2.29;100.00;99859.61;1726482;81;21060;-78
2022/01/01 10:38:26;;;;;;;185.10;102.40;;;;;;;2.35;100.00;99858.84;1742332;81;21073;-78
2022/01/01 10:41:05;;;;;;;333.07;121.85;;;;;;;2.48;100.00;99855.63;1703291;82;21066;-78
2022/01/01 10:43:44;;;;;;;308.75;85.55;;;;;;;2.46;100.00;99847.17;1705781;81;21128;-82
2022/01/01 10:46:18;;;;;;;195.18;56.40;;;;;;;2.60;100.00;99854.96;1717400;83;21004;-81
2022/01/01 10:48:57;;;;;;;293.93;75.28;;;;;;;2.84;100.00;99854.06;1703973;83;22304;-80
2022/01/01 10:51:24;;;;;;;291.82;89.35;;;;;;;2.91;100.00;99862.28;1706922;83;21065;-80
2022/01/01 10:54:05;;;;;;;215.95;77.85;;;;;;;2.94;100.00;99863.84;1713996;83;21058;-80
2022/01/01 10:56:46;;;;;;;103.70;56.30;;;;;;;2.99;100.00;99854.16;1703852;83;21170;-78
2022/01/01 10:59:29;;;;;;;63.42;36.65;;;;;;;3.04;100.00;99847.00;1716455;80;21517;-79
2022/01/01 11:01:57;;;;;;;60.92;29.23;;;;;;;3.00;100.00;99841.67;1714477;83;21046;-78
2022/01/01 11:04:26;;;;;;;58.68;29.20;;;;;;;2.92;100.00;99845.12;1713331;82;21063;-78
2022/01/01 11:06:55;;;;;;;52.58;30.23;;;;;;;2.93;100.00;99846.75;1693399;84;21075;-78
2022/01/01 11:09:23;;;;;;;56.20;29.90;;;;;;;2.93;100.00;99846.75;1708172;83;21137;-77
2022/01/01 11:11:59;;;;;;;57.38;29.95;;;;;;;2.89;100.00;99845.28;1711362;82;21552;-78
2022/01/01 11:14:24;;;;;;;;;;;;;;;2.91;100.00;99849.89;1681445;83;21075;-78
2022/01/01 11:16:52;;;;;;;46.60;27.40;;;;;;;2.92;100.00;99850.27;1721607;83;20163;-78
2022/01/01 11:19:24;;;;;;;50.52;28.85;;;;;;;2.92;100.00;99857.98;1700497;82;22052;-79
2022/01/01 11:21:54;;;;;;;48.02;27.93;;;;;;;2.86;100.00;99855.28;1697152;82;21122;-79